createdAt,value
2019-02-06T00:01:01.526Z,12.13
2019-02-06T00:03:30.062Z,11.80
2019-02-06T00:05:58.557Z,12.90
2019-02-06T00:08:27.835Z,12.17
2019-02-06T00:10:56.336Z,12.50
2019-02-06T00:13:24.834Z,12.70
2019-02-06T00:15:53.853Z,11.77
2019-02-06T00:18:22.756Z,11.60
2019-02-06T00:20:51.275Z,13.03
2019-02-06T00:23:19.781Z,12.17
2019-02-06T00:25:48.243Z,12.30
2019-02-06T00:28:16.772Z,12.17
2019-02-06T00:30:45.528Z,11.73
2019-02-06T00:33:14.039Z,11.93
2019-02-06T00:35:42.557Z,12.17
2019-02-06T00:38:11.012Z,11.67
2019-02-06T00:40:39.549Z,11.63
2019-02-06T00:43:07.995Z,11.23
2019-02-06T00:45:36.471Z,10.83
2019-02-06T00:48:05.331Z,11.20
2019-02-06T00:50:33.871Z,11.13
2019-02-06T00:53:02.325Z,11.57
2019-02-06T00:55:30.803Z,10.13
2019-02-06T00:57:59.320Z,10.70
2019-02-06T01:00:27.826Z,10.77
2019-02-06T01:02:56.554Z,10.43
2019-02-06T01:05:24.993Z,10.53
2019-02-06T01:07:53.603Z,10.30
2019-02-06T01:10:22.263Z,10.33
2019-02-06T01:12:50.809Z,10.83
2019-02-06T01:15:19.331Z,10.60
2019-02-06T01:17:47.871Z,10.50
2019-02-06T01:20:18.024Z,10.13
2019-02-06T01:22:46.571Z,10.60
2019-02-06T01:25:16.810Z,10.77
2019-02-06T01:27:45.334Z,10.23
2019-02-06T01:30:20.703Z,10.17
2019-02-06T01:32:49.214Z,10.20
2019-02-06T01:35:18.034Z,10.67
2019-02-06T01:37:46.718Z,10.07
2019-02-06T01:40:20.027Z,9.97
2019-02-06T01:42:48.734Z,10.17
2019-02-06T01:45:19.336Z,9.83
2019-02-06T01:47:47.812Z,9.90
2019-02-06T01:50:18.296Z,9.37
2019-02-06T01:52:46.882Z,9.73
2019-02-06T01:55:15.849Z,9.40
2019-02-06T01:57:44.476Z,9.43
2019-02-06T02:00:23.479Z,10.10
2019-02-06T02:02:52.084Z,9.60
2019-02-06T02:05:22.065Z,9.47
2019-02-06T02:07:51.374Z,9.77
2019-02-06T02:10:21.031Z,9.40
2019-02-06T02:12:49.904Z,9.80
2019-02-06T02:15:19.275Z,9.13
2019-02-06T02:17:47.810Z,9.57
2019-02-06T02:20:19.370Z,10.57
2019-02-06T02:22:47.934Z,10.40
2019-02-06T02:25:16.425Z,8.80
2019-02-06T02:27:44.940Z,9.40
2019-02-06T02:30:20.144Z,9.87
2019-02-06T02:32:49.006Z,9.43
2019-02-06T02:35:17.559Z,9.43
2019-02-06T02:37:46.169Z,9.73
2019-02-06T02:40:14.733Z,9.67
2019-02-06T02:42:43.250Z,9.00
2019-02-06T02:45:14.697Z,9.27
2019-02-06T02:47:43.617Z,9.67
2019-02-06T02:50:12.401Z,9.30
2019-02-06T02:52:40.969Z,9.77
2019-02-06T02:55:13.405Z,8.93
2019-02-06T02:57:42.278Z,9.23
2019-02-06T03:00:14.456Z,9.17
2019-02-06T03:02:44.914Z,9.20
2019-02-06T03:05:13.583Z,9.80
2019-02-06T03:07:42.040Z,10.23
2019-02-06T03:10:11.880Z,9.13
2019-02-06T03:12:40.338Z,9.30
2019-02-06T03:15:09.732Z,9.47
2019-02-06T03:17:38.576Z,10.60
2019-02-06T03:20:10.015Z,9.43
2019-02-06T03:22:38.489Z,10.10
2019-02-06T03:25:09.898Z,9.57
2019-02-06T03:27:38.482Z,9.50
2019-02-06T03:30:15.717Z,10.10
2019-02-06T03:32:44.705Z,10.73
2019-02-06T03:35:13.419Z,10.97
2019-02-06T03:37:41.891Z,11.03
2019-02-06T03:40:13.175Z,11.00
2019-02-06T03:42:41.756Z,11.73
2019-02-06T03:45:12.241Z,11.17
2019-02-06T03:47:40.706Z,11.20
2019-02-06T03:50:15.187Z,12.17
2019-02-06T03:52:43.758Z,11.07
2019-02-06T03:55:13.186Z,10.80
2019-02-06T03:57:41.646Z,11.10
2019-02-06T04:00:17.548Z,11.67
2019-02-06T04:02:46.068Z,11.93
2019-02-06T04:05:14.746Z,11.50
2019-02-06T04:07:43.278Z,11.37
2019-02-06T04:10:16.783Z,11.17
2019-02-06T04:12:45.299Z,11.67
2019-02-06T04:15:15.145Z,11.43
2019-02-06T04:17:43.683Z,11.00
2019-02-06T04:20:13.654Z,10.97
2019-02-06T04:22:42.109Z,11.07
2019-02-06T04:25:12.139Z,11.97
2019-02-06T04:27:40.696Z,11.53
2019-02-06T04:30:12.567Z,11.93
2019-02-06T04:32:41.117Z,12.57
2019-02-06T04:35:11.299Z,12.17
2019-02-06T04:37:39.813Z,12.80
2019-02-06T04:40:11.661Z,12.60
2019-02-06T04:42:40.137Z,12.63
2019-02-06T04:45:11.109Z,13.50
2019-02-06T04:47:39.629Z,13.10
2019-02-06T04:50:10.601Z,12.57
2019-02-06T04:52:39.093Z,12.33
2019-02-06T04:55:09.869Z,13.17
2019-02-06T04:57:38.401Z,14.07
2019-02-06T05:00:13.114Z,13.67
2019-02-06T05:02:41.645Z,13.90
2019-02-06T05:05:10.127Z,13.57
2019-02-06T05:07:38.773Z,13.80
2019-02-06T05:10:10.225Z,14.27
2019-02-06T05:12:38.673Z,14.57
2019-02-06T05:15:08.830Z,14.73
2019-02-06T05:17:37.286Z,14.80
2019-02-06T05:20:08.822Z,14.87
2019-02-06T05:22:37.362Z,15.83
2019-02-06T05:25:06.267Z,16.40
2019-02-06T05:27:34.835Z,17.67
2019-02-06T05:30:04.619Z,16.27
2019-02-06T05:32:33.094Z,17.93
2019-02-06T05:35:01.649Z,16.47
2019-02-06T05:37:32.370Z,18.23
2019-02-06T05:40:00.389Z,19.17
2019-02-06T05:42:28.830Z,18.30
2019-02-06T05:44:57.310Z,17.17
2019-02-06T05:47:25.841Z,17.83
2019-02-06T05:49:54.391Z,17.23
2019-02-06T05:52:22.864Z,18.03
2019-02-06T05:54:51.411Z,16.93
2019-02-06T05:57:19.908Z,17.77
2019-02-06T05:59:48.440Z,17.43
2019-02-06T06:02:16.870Z,17.57
2019-02-06T06:04:45.353Z,17.67
2019-02-06T06:07:13.799Z,17.67
2019-02-06T06:09:42.296Z,18.63
2019-02-06T06:12:10.765Z,18.77
2019-02-06T06:14:39.228Z,20.03
2019-02-06T06:17:07.680Z,20.13
2019-02-06T06:19:36.219Z,19.20
2019-02-06T06:22:04.726Z,20.07
2019-02-06T06:24:33.281Z,20.17
2019-02-06T06:27:01.793Z,20.63
2019-02-06T06:29:30.249Z,20.67
2019-02-06T06:31:58.672Z,20.80
2019-02-06T06:34:27.132Z,20.47
2019-02-06T06:36:56.927Z,21.67
2019-02-06T06:39:25.587Z,21.20
2019-02-06T06:41:54.118Z,22.00
2019-02-06T06:44:22.666Z,22.53
2019-02-06T06:46:51.137Z,21.43
2019-02-06T06:49:19.672Z,21.93
2019-02-06T06:51:48.123Z,22.07
2019-02-06T06:54:16.881Z,23.27
2019-02-06T06:56:45.413Z,22.70
2019-02-06T06:59:13.869Z,23.20
2019-02-06T07:01:42.307Z,24.53
2019-02-06T07:04:10.769Z,25.00
2019-02-06T07:06:39.227Z,24.10
2019-02-06T07:09:08.602Z,24.20
2019-02-06T07:11:37.141Z,23.33
2019-02-06T07:14:05.597Z,23.53
2019-02-06T07:16:34.040Z,22.83
2019-02-06T07:19:02.665Z,23.53
2019-02-06T07:21:31.163Z,24.77
2019-02-06T07:23:59.682Z,23.77
2019-02-06T07:26:28.416Z,23.20
2019-02-06T07:28:56.908Z,23.07
2019-02-06T07:31:25.357Z,23.03
2019-02-06T07:33:53.985Z,23.90
2019-02-06T07:36:22.448Z,24.07
2019-02-06T07:38:50.973Z,23.03
2019-02-06T07:41:19.405Z,22.03
2019-02-06T07:43:47.902Z,21.23
2019-02-06T07:46:16.455Z,21.83
2019-02-06T07:48:44.934Z,22.77
2019-02-06T07:51:13.449Z,21.47
2019-02-06T07:53:41.876Z,21.80
2019-02-06T07:56:10.354Z,21.80
2019-02-06T07:58:39.660Z,23.47
2019-02-06T08:01:08.201Z,22.07
2019-02-06T08:03:36.701Z,23.47
2019-02-06T08:06:05.212Z,22.80
2019-02-06T08:08:36.047Z,21.73
2019-02-06T08:11:03.842Z,21.10
2019-02-06T08:13:32.284Z,22.40
2019-02-06T08:16:01.119Z,22.10
2019-02-06T08:18:29.599Z,21.63
2019-02-06T08:20:58.121Z,21.53
2019-02-06T08:23:26.617Z,22.80
2019-02-06T08:25:55.085Z,21.07
2019-02-06T08:28:23.527Z,21.33
2019-02-06T08:30:52.028Z,21.80
2019-02-06T08:33:20.586Z,22.63
2019-02-06T08:35:49.070Z,23.03
2019-02-06T08:38:17.578Z,19.97
2019-02-06T08:40:46.104Z,21.67
2019-02-06T08:43:14.618Z,20.27
2019-02-06T08:45:43.065Z,20.13
2019-02-06T08:48:11.783Z,19.57
2019-02-06T08:50:40.235Z,19.43
2019-02-06T08:53:08.757Z,19.43
2019-02-06T08:55:37.359Z,19.80
2019-02-06T08:58:05.870Z,20.00
2019-02-06T09:00:39.298Z,19.67
2019-02-06T09:03:09.277Z,19.87
2019-02-06T09:05:37.797Z,19.90
2019-02-06T09:08:07.008Z,18.97
2019-02-06T09:10:35.643Z,19.40
2019-02-06T09:13:05.206Z,17.97
2019-02-06T09:15:33.672Z,19.63
2019-02-06T09:18:02.117Z,19.40
2019-02-06T09:20:30.990Z,19.63
2019-02-06T09:22:59.999Z,18.17
2019-02-06T09:25:29.495Z,18.50
2019-02-06T09:27:58.079Z,19.20
2019-02-06T09:30:29.016Z,16.60
2019-02-06T09:32:57.661Z,15.73
2019-02-06T09:35:26.431Z,17.80
2019-02-06T09:37:54.932Z,17.50
2019-02-06T09:40:28.712Z,16.37
2019-02-06T09:42:57.232Z,17.17
2019-02-06T09:45:25.992Z,15.63
2019-02-06T09:47:54.519Z,16.50
2019-02-06T09:50:26.477Z,16.43
2019-02-06T09:52:55.188Z,15.63
2019-02-06T09:55:23.728Z,15.70
2019-02-06T09:57:52.320Z,15.00
2019-02-06T10:00:23.760Z,15.57
2019-02-06T10:02:52.270Z,15.77
2019-02-06T10:05:21.078Z,15.90
2019-02-06T10:07:49.558Z,15.10
2019-02-06T10:10:22.992Z,15.53
2019-02-06T10:12:51.522Z,14.90
2019-02-06T10:15:25.934Z,15.37
2019-02-06T10:17:55.220Z,14.80
2019-02-06T10:20:35.646Z,15.87
2019-02-06T10:23:05.315Z,14.33
2019-02-06T10:25:33.736Z,15.13
2019-02-06T10:28:02.330Z,14.27
2019-02-06T10:30:35.766Z,14.97
2019-02-06T10:33:04.466Z,14.97
2019-02-06T10:35:32.889Z,13.77
2019-02-06T10:38:01.413Z,14.53
2019-02-06T10:40:29.862Z,14.47
2019-02-06T10:42:58.392Z,15.30
2019-02-06T10:45:27.094Z,13.87
2019-02-06T10:47:55.961Z,14.60
2019-02-06T10:50:30.154Z,14.43
2019-02-06T10:52:58.615Z,14.47
2019-02-06T10:55:27.163Z,14.30
2019-02-06T10:57:55.802Z,14.97
2019-02-06T11:00:29.828Z,14.20
2019-02-06T11:02:57.565Z,13.73
2019-02-06T11:05:26.000Z,14.13
2019-02-06T11:07:54.494Z,13.17
2019-02-06T11:10:25.055Z,14.73
2019-02-06T11:12:53.587Z,15.57
2019-02-06T11:15:22.428Z,12.83
2019-02-06T11:17:51.284Z,14.10
2019-02-06T11:20:27.331Z,12.70
2019-02-06T11:22:55.792Z,11.77
2019-02-06T11:25:24.301Z,10.97
2019-02-06T11:27:52.958Z,10.00
2019-02-06T11:30:28.661Z,9.97
2019-02-06T11:32:57.115Z,10.33
2019-02-06T11:35:25.559Z,11.07
2019-02-06T11:37:54.165Z,7.93
2019-02-06T11:40:24.385Z,9.73
2019-02-06T11:42:53.809Z,9.20
2019-02-06T11:45:25.562Z,9.17
2019-02-06T11:47:54.039Z,9.50
2019-02-06T11:50:24.769Z,9.53
2019-02-06T11:52:53.588Z,8.70
2019-02-06T11:55:27.035Z,9.80
2019-02-06T11:57:55.508Z,10.70
2019-02-06T12:00:31.977Z,9.57
2019-02-06T12:03:00.508Z,9.67
2019-02-06T12:05:29.011Z,10.33
2019-02-06T12:07:57.470Z,10.57
2019-02-06T12:10:26.060Z,10.47
2019-02-06T12:12:54.515Z,9.57
2019-02-06T12:15:23.328Z,10.37
2019-02-06T12:17:51.785Z,9.23
2019-02-06T12:20:24.048Z,9.77
2019-02-06T12:22:52.512Z,9.80
2019-02-06T12:25:20.951Z,9.93
2019-02-06T12:27:55.771Z,9.10
2019-02-06T12:30:27.489Z,10.03
2019-02-06T12:32:55.933Z,9.50
2019-02-06T12:35:24.379Z,9.00
2019-02-06T12:37:52.829Z,9.43
2019-02-06T12:40:22.090Z,9.70
2019-02-06T12:42:50.639Z,8.53
2019-02-06T12:45:21.002Z,8.20
2019-02-06T12:47:49.983Z,8.33
2019-02-06T12:50:23.397Z,7.83
2019-02-06T12:52:51.903Z,8.87
2019-02-06T12:55:34.240Z,8.93
2019-02-06T12:58:02.766Z,8.57
2019-02-06T13:00:33.541Z,8.40
2019-02-06T13:03:02.003Z,8.83
2019-02-06T13:05:30.875Z,9.20
2019-02-06T13:07:59.440Z,9.50
2019-02-06T13:10:34.055Z,9.47
2019-02-06T13:12:58.152Z,9.30
2019-02-06T13:15:26.698Z,8.57
2019-02-06T13:17:55.429Z,8.97
2019-02-06T13:20:29.235Z,9.63
2019-02-06T13:22:57.684Z,8.57
2019-02-06T13:25:26.279Z,8.93
2019-02-06T13:27:54.794Z,9.97
2019-02-06T13:30:28.433Z,9.70
2019-02-06T13:32:56.939Z,9.53
2019-02-06T13:35:25.417Z,8.30
2019-02-06T13:37:53.931Z,8.40
2019-02-06T13:40:28.956Z,9.30
2019-02-06T13:42:59.608Z,8.30
2019-02-06T13:45:37.101Z,8.10
2019-02-06T13:48:05.788Z,8.20
2019-02-06T13:50:34.382Z,8.20
2019-02-06T13:53:02.900Z,8.27
2019-02-06T13:55:31.369Z,8.30
2019-02-06T13:57:59.898Z,8.27
2019-02-06T14:00:36.879Z,8.30
2019-02-06T14:03:06.337Z,8.87
2019-02-06T14:05:34.921Z,7.37
2019-02-06T14:08:09.242Z,7.97
2019-02-06T14:10:37.751Z,7.63
2019-02-06T14:13:06.328Z,7.60
2019-02-06T14:15:37.895Z,8.13
2019-02-06T14:18:06.647Z,8.47
2019-02-06T14:20:35.262Z,8.17
2019-02-06T14:23:07.009Z,8.40
2019-02-06T14:25:45.412Z,9.07
2019-02-06T14:28:44.169Z,8.37
2019-02-06T14:31:34.641Z,8.60
2019-02-06T14:34:11.866Z,8.10
2019-02-06T14:36:58.186Z,8.63
2019-02-06T14:39:39.197Z,8.33
2019-02-06T14:42:19.659Z,8.93
2019-02-06T14:45:03.019Z,9.63
2019-02-06T14:47:37.535Z,8.80
2019-02-06T14:50:17.792Z,8.90
2019-02-06T14:53:11.648Z,10.50
2019-02-06T14:55:45.853Z,9.37
2019-02-06T14:58:38.327Z,9.87
2019-02-06T15:01:09.891Z,9.53
2019-02-06T15:03:59.419Z,10.43
2019-02-06T15:06:30.970Z,10.27
2019-02-06T15:09:22.439Z,9.70
2019-02-06T15:11:54.070Z,10.40
2019-02-06T15:14:40.341Z,10.10
2019-02-06T15:17:32.679Z,10.83
2019-02-06T15:20:28.309Z,9.33
2019-02-06T15:23:14.986Z,9.83
2019-02-06T15:26:01.425Z,8.73
2019-02-06T15:28:35.623Z,8.80
2019-02-06T15:31:18.786Z,8.67
2019-02-06T15:33:53.581Z,9.40
2019-02-06T15:36:25.298Z,8.40
2019-02-06T15:39:31.113Z,9.53
2019-02-06T15:42:02.671Z,9.30
2019-02-06T15:44:34.290Z,9.23
2019-02-06T15:47:18.183Z,8.80
2019-02-06T15:49:49.771Z,8.73
2019-02-06T15:52:46.857Z,8.67
2019-02-06T15:55:29.879Z,9.57
2019-02-06T15:58:13.233Z,8.83
2019-02-06T16:01:05.835Z,8.10
2019-02-06T16:03:39.008Z,9.23
2019-02-06T16:06:12.251Z,9.57
2019-02-06T16:08:46.493Z,8.97
2019-02-06T16:11:29.989Z,9.57
2019-02-06T16:14:01.590Z,9.00
2019-02-06T16:16:51.019Z,9.87
2019-02-06T16:19:39.849Z,8.63
2019-02-06T16:22:39.404Z,8.97
2019-02-06T16:25:22.813Z,8.83
2019-02-06T16:28:10.941Z,8.97
2019-02-06T16:30:47.814Z,8.70
2019-02-06T16:33:30.901Z,9.03
2019-02-06T16:36:08.155Z,9.37
2019-02-06T16:38:55.778Z,8.93
2019-02-06T16:41:56.915Z,9.00
2019-02-06T16:44:27.318Z,9.57
2019-02-06T16:47:01.547Z,8.57
2019-02-06T16:49:35.954Z,9.10
2019-02-06T16:52:13.157Z,10.67
2019-02-06T16:55:05.387Z,10.53
2019-02-06T16:57:51.819Z,10.17
2019-02-06T17:00:32.415Z,10.57
2019-02-06T17:03:23.053Z,10.20
2019-02-06T17:06:10.889Z,9.90
2019-02-06T17:09:13.685Z,9.40
2019-02-06T17:12:04.540Z,10.03
2019-02-06T17:14:33.580Z,9.00
2019-02-06T17:17:20.018Z,10.80
2019-02-06T17:20:06.362Z,14.27
2019-02-06T17:22:49.637Z,11.50
2019-02-06T17:25:39.037Z,9.60
2019-02-06T17:28:10.608Z,10.13
2019-02-06T17:30:47.937Z,10.53
2019-02-06T17:33:19.484Z,10.47
2019-02-06T17:35:56.565Z,10.40
2019-02-06T17:38:28.181Z,10.23
2019-02-06T17:41:11.402Z,10.60
2019-02-06T17:44:01.108Z,10.47
2019-02-06T17:46:32.673Z,9.50
2019-02-06T17:49:37.003Z,9.83
2019-02-06T17:52:10.994Z,11.30
2019-02-06T17:54:51.181Z,10.10
2019-02-06T17:57:19.642Z,10.77
2019-02-06T17:59:48.092Z,11.20
2019-02-06T18:02:16.908Z,10.77
2019-02-06T18:04:45.492Z,10.67
2019-02-06T18:07:13.992Z,10.57
2019-02-06T18:09:42.671Z,10.93
2019-02-06T18:12:11.183Z,10.63
2019-02-06T18:14:39.631Z,10.87
2019-02-06T18:17:08.148Z,10.87
2019-02-06T18:19:37.682Z,9.93
2019-02-06T18:22:06.784Z,10.47
2019-02-06T18:24:35.209Z,10.93
2019-02-06T18:27:04.291Z,10.60
2019-02-06T18:29:32.742Z,10.47
2019-02-06T18:32:01.251Z,11.13
2019-02-06T18:34:29.706Z,10.87
2019-02-06T18:36:58.518Z,10.87
2019-02-06T18:39:27.026Z,10.93
2019-02-06T18:41:55.534Z,11.37
2019-02-06T18:44:25.186Z,10.33
2019-02-06T18:46:54.355Z,10.70
2019-02-06T18:49:22.871Z,10.63
2019-02-06T18:51:51.578Z,10.33
2019-02-06T18:54:20.225Z,9.90
2019-02-06T18:56:49.055Z,9.70
2019-02-06T18:59:17.661Z,9.90
2019-02-06T19:01:46.196Z,10.67
2019-02-06T19:04:14.784Z,9.50
2019-02-06T19:06:43.474Z,9.90
2019-02-06T19:09:12.119Z,9.83
2019-02-06T19:11:40.653Z,9.23
2019-02-06T19:14:09.593Z,9.77
2019-02-06T19:16:38.501Z,9.33
2019-02-06T19:19:07.175Z,10.43
2019-02-06T19:21:35.677Z,9.80
2019-02-06T19:24:04.666Z,9.10
2019-02-06T19:26:33.178Z,9.40
2019-02-06T19:29:01.682Z,9.93
2019-02-06T19:31:31.080Z,9.47
2019-02-06T19:33:59.608Z,9.67
2019-02-06T19:36:28.068Z,9.63
2019-02-06T19:38:56.591Z,9.03
2019-02-06T19:41:25.105Z,9.67
2019-02-06T19:43:53.638Z,9.30
2019-02-06T19:46:22.168Z,9.60
2019-02-06T19:48:50.681Z,9.37
2019-02-06T19:51:19.197Z,9.60
2019-02-06T19:53:48.024Z,10.20
2019-02-06T19:56:16.557Z,9.10
2019-02-06T19:58:45.111Z,9.20
2019-02-06T20:01:13.629Z,9.27
2019-02-06T20:03:42.098Z,8.80
2019-02-06T20:06:12.291Z,9.20
2019-02-06T20:08:40.809Z,8.60
2019-02-06T20:11:09.257Z,8.87
2019-02-06T20:13:37.891Z,9.40
2019-02-06T20:16:06.428Z,9.57
2019-02-06T20:18:34.910Z,9.30
2019-02-06T20:21:03.422Z,8.73
2019-02-06T20:23:32.054Z,9.40
2019-02-06T20:26:00.531Z,9.47
2019-02-06T20:28:29.062Z,9.47
2019-02-06T20:30:57.836Z,10.17
2019-02-06T20:33:26.289Z,9.97
2019-02-06T20:35:54.820Z,9.40
2019-02-06T20:38:23.360Z,8.97
2019-02-06T20:40:52.080Z,9.27
2019-02-06T20:43:22.383Z,9.03
2019-02-06T20:45:50.722Z,9.37
2019-02-06T20:48:19.563Z,9.37
2019-02-06T20:50:48.009Z,9.03
2019-02-06T20:53:16.566Z,8.70
2019-02-06T20:55:45.112Z,9.17
2019-02-06T20:58:13.653Z,9.73
2019-02-06T21:00:42.424Z,9.40
2019-02-06T21:03:10.877Z,8.70
2019-02-06T21:05:39.388Z,9.00
2019-02-06T21:08:07.933Z,9.17
2019-02-06T21:10:36.609Z,9.93
2019-02-06T21:13:06.369Z,9.53
2019-02-06T21:15:35.048Z,9.20
2019-02-06T21:18:03.548Z,9.20
2019-02-06T21:20:32.011Z,9.27
2019-02-06T21:23:00.823Z,8.90
2019-02-06T21:25:29.347Z,8.57
2019-02-06T21:27:57.914Z,8.97
2019-02-06T21:30:31.246Z,8.57
2019-02-06T21:32:59.685Z,8.90
2019-02-06T21:35:28.289Z,8.77
2019-02-06T21:37:57.081Z,7.70
2019-02-06T21:40:31.120Z,9.43
2019-02-06T21:42:59.599Z,8.87
2019-02-06T21:45:28.103Z,9.50
2019-02-06T21:47:56.624Z,8.70
2019-02-06T21:50:25.514Z,8.47
2019-02-06T21:52:54.457Z,9.50
2019-02-06T21:55:24.172Z,8.40
2019-02-06T21:57:52.833Z,9.27
2019-02-06T22:00:23.917Z,8.83
2019-02-06T22:02:52.442Z,9.80
2019-02-06T22:05:20.962Z,8.97
2019-02-06T22:07:49.817Z,9.47
2019-02-06T22:10:22.268Z,8.63
2019-02-06T22:12:50.755Z,9.03
2019-02-06T22:15:24.717Z,9.53
2019-02-06T22:17:53.257Z,8.93
2019-02-06T22:20:21.856Z,8.63
2019-02-06T22:22:50.318Z,9.43
2019-02-06T22:25:18.840Z,9.00
2019-02-06T22:27:47.291Z,9.63
2019-02-06T22:30:23.758Z,9.30
2019-02-06T22:32:52.276Z,9.30
2019-02-06T22:35:21.098Z,9.73
2019-02-06T22:37:49.651Z,9.80
2019-02-06T22:40:20.678Z,9.13
2019-02-06T22:42:49.233Z,10.53
2019-02-06T22:45:22.182Z,9.63
2019-02-06T22:47:50.973Z,9.80
2019-02-06T22:50:21.754Z,9.20
2019-02-06T22:52:50.321Z,9.30
2019-02-06T22:55:18.973Z,9.30
2019-02-06T22:57:47.486Z,10.40
2019-02-06T23:00:29.247Z,9.47
2019-02-06T23:02:58.146Z,9.20
2019-02-06T23:05:26.675Z,10.40
2019-02-06T23:07:55.214Z,9.40
2019-02-06T23:10:23.716Z,9.17
2019-02-06T23:12:52.260Z,8.20
2019-02-06T23:15:20.753Z,8.70
2019-02-06T23:17:49.231Z,8.63
2019-02-06T23:20:17.749Z,8.80
2019-02-06T23:22:46.268Z,9.03
2019-02-06T23:25:14.702Z,8.60
2019-02-06T23:27:43.163Z,9.07
2019-02-06T23:30:14.247Z,8.70
2019-02-06T23:32:43.216Z,9.80
2019-02-06T23:35:11.728Z,9.07
2019-02-06T23:37:40.172Z,8.60
2019-02-06T23:40:11.674Z,9.00
2019-02-06T23:42:40.130Z,8.97
2019-02-06T23:45:10.145Z,9.77
2019-02-06T23:47:39.067Z,8.67
2019-02-06T23:50:13.341Z,9.03
2019-02-06T23:52:41.918Z,8.47
2019-02-06T23:55:11.070Z,8.87
2019-02-06T23:57:39.528Z,9.00
